createdAt,value
2023-04-18T00:00:35.053Z,14.93
2023-04-18T00:03:04.101Z,15.52
2023-04-18T00:05:31.794Z,15.38
2023-04-18T00:07:58.702Z,15.18
2023-04-18T00:10:25.973Z,14.90
2023-04-18T00:12:53.088Z,15.15
2023-04-18T00:15:20.038Z,16.45
2023-04-18T00:17:48.432Z,14.38
2023-04-18T00:20:15.484Z,15.57
2023-04-18T00:22:46.792Z,14.68
2023-04-18T00:25:15.381Z,15.10
2023-04-18T00:27:42.318Z,14.50
2023-04-18T00:30:09.733Z,15.18
2023-04-18T00:32:38.092Z,14.45
2023-04-18T00:35:05.781Z,15.23
2023-04-18T00:37:32.863Z,15.10
2023-04-18T00:39:59.854Z,15.75
2023-04-18T00:42:29.027Z,14.63
2023-04-18T00:44:56.114Z,16.08
2023-04-18T00:47:23.177Z,15.13
2023-04-18T00:49:50.374Z,15.48
2023-04-18T00:52:18.937Z,15.00
2023-04-18T00:54:47.393Z,14.52
2023-04-18T00:57:15.140Z,15.30
2023-04-18T00:59:42.739Z,16.30
2023-04-18T01:02:09.776Z,16.20
2023-04-18T01:04:37.517Z,15.80
2023-04-18T01:07:05.502Z,15.75
2023-04-18T01:09:32.476Z,15.13
2023-04-18T01:11:59.464Z,15.15
2023-04-18T01:14:26.655Z,13.55
2023-04-18T01:16:53.777Z,13.85
2023-04-18T01:19:20.946Z,14.13
2023-04-18T01:21:48.128Z,15.23
2023-04-18T01:24:17.178Z,14.40
2023-04-18T01:26:45.985Z,13.82
2023-04-18T01:29:13.505Z,14.35
2023-04-18T01:31:41.472Z,15.55
2023-04-18T01:34:09.207Z,14.93
2023-04-18T01:36:37.653Z,15.75
2023-04-18T01:39:05.142Z,14.85
2023-04-18T01:41:32.992Z,14.43
2023-04-18T01:44:00.486Z,14.43
2023-04-18T01:46:28.765Z,14.95
2023-04-18T01:48:57.080Z,15.30
2023-04-18T01:51:24.255Z,15.93
2023-04-18T01:53:53.740Z,15.80
2023-04-18T01:56:21.129Z,14.75
2023-04-18T01:58:48.197Z,14.85
2023-04-18T02:01:15.355Z,14.70
2023-04-18T02:03:42.476Z,14.80
2023-04-18T02:06:10.275Z,14.93
2023-04-18T02:08:37.395Z,14.20
2023-04-18T02:11:07.453Z,14.63
2023-04-18T02:13:34.563Z,14.77
2023-04-18T02:16:11.505Z,15.20
2023-04-18T02:18:40.243Z,15.20
2023-04-18T02:21:07.400Z,15.90
2023-04-18T02:23:34.342Z,14.25
2023-04-18T02:26:01.469Z,14.70
2023-04-18T02:28:28.452Z,15.45
2023-04-18T02:30:56.074Z,15.45
2023-04-18T02:33:23.030Z,15.15
2023-04-18T02:35:52.398Z,13.75
2023-04-18T02:38:19.384Z,15.35
2023-04-18T02:40:46.369Z,14.48
2023-04-18T02:43:13.332Z,15.40
2023-04-18T02:45:40.349Z,15.38
2023-04-18T02:48:07.593Z,15.73
2023-04-18T02:50:35.646Z,15.52
2023-04-18T02:53:02.826Z,15.00
2023-04-18T02:55:41.650Z,14.55
2023-04-18T02:58:08.760Z,14.85
2023-04-18T03:00:53.616Z,14.80
2023-04-18T03:03:38.704Z,14.40
2023-04-18T03:06:22.882Z,14.18
2023-04-18T03:08:50.103Z,13.82
2023-04-18T03:11:17.159Z,15.07
2023-04-18T03:13:44.958Z,14.63
2023-04-18T03:16:12.634Z,15.48
2023-04-18T03:18:40.075Z,14.32
2023-04-18T03:21:07.320Z,14.40
2023-04-18T03:23:34.916Z,14.20
2023-04-18T03:26:06.561Z,14.20
2023-04-18T03:28:35.586Z,14.35
2023-04-18T03:31:02.809Z,13.85
2023-04-18T03:33:31.028Z,14.55
2023-04-18T03:36:06.955Z,14.38
2023-04-18T03:38:34.181Z,14.65
2023-04-18T03:41:01.150Z,14.45
2023-04-18T03:43:33.272Z,13.15
2023-04-18T03:46:00.581Z,13.20
2023-04-18T03:48:29.185Z,13.00
2023-04-18T03:50:59.998Z,13.35
2023-04-18T03:53:27.366Z,13.50
2023-04-18T03:55:56.840Z,13.82
2023-04-18T03:58:32.195Z,13.80
2023-04-18T04:01:01.170Z,13.73
2023-04-18T04:03:29.674Z,12.38
2023-04-18T04:05:57.061Z,13.68
2023-04-18T04:08:25.095Z,13.75
2023-04-18T04:10:53.413Z,13.45
2023-04-18T04:13:20.643Z,14.23
2023-04-18T04:15:48.966Z,13.27
2023-04-18T04:18:15.945Z,13.73
2023-04-18T04:20:46.118Z,13.38
2023-04-18T04:23:19.692Z,13.82
2023-04-18T04:25:48.243Z,13.77
2023-04-18T04:28:28.863Z,14.18
2023-04-18T04:31:00.871Z,13.70
2023-04-18T04:33:33.411Z,13.82
2023-04-18T04:36:04.781Z,13.00
2023-04-18T04:38:33.536Z,14.45
2023-04-18T04:41:00.579Z,13.75
2023-04-18T04:43:28.920Z,14.27
2023-04-18T04:45:57.819Z,13.70
2023-04-18T04:48:25.158Z,14.55
2023-04-18T04:50:59.039Z,13.27
2023-04-18T04:53:28.576Z,13.10
2023-04-18T04:55:55.826Z,14.27
2023-04-18T04:58:23.119Z,13.70
2023-04-18T05:01:25.814Z,12.85
2023-04-18T05:03:53.872Z,13.20
2023-04-18T05:06:22.638Z,14.02
2023-04-18T05:08:50.678Z,13.55
2023-04-18T05:11:18.223Z,14.48
2023-04-18T05:13:45.465Z,13.93
2023-04-18T05:16:12.460Z,13.70
2023-04-18T05:18:41.181Z,13.63
2023-04-18T05:21:08.141Z,13.95
2023-04-18T05:23:37.209Z,13.93
2023-04-18T05:26:05.691Z,13.50
2023-04-18T05:28:33.058Z,14.25
2023-04-18T05:31:02.898Z,14.77
2023-04-18T05:33:33.020Z,14.40
2023-04-18T05:36:00.224Z,14.57
2023-04-18T05:38:27.217Z,15.05
2023-04-18T05:40:56.019Z,15.30
2023-04-18T05:43:23.608Z,15.15
2023-04-18T05:45:52.623Z,14.75
2023-04-18T05:48:20.227Z,13.80
2023-04-18T05:50:47.578Z,14.20
2023-04-18T05:53:14.816Z,13.68
2023-04-18T05:55:42.131Z,14.98
2023-04-18T05:58:09.266Z,14.60
2023-04-18T06:00:36.400Z,13.82
2023-04-18T06:03:03.649Z,13.93
2023-04-18T06:05:31.360Z,13.93
2023-04-18T06:07:58.880Z,14.57
2023-04-18T06:10:25.987Z,14.63
2023-04-18T06:12:53.088Z,14.45
2023-04-18T06:15:20.183Z,15.02
2023-04-18T06:17:47.345Z,13.88
2023-04-18T06:20:14.527Z,13.85
2023-04-18T06:22:41.826Z,13.70
2023-04-18T06:25:10.176Z,15.45
2023-04-18T06:27:40.346Z,13.95
2023-04-18T06:30:08.432Z,14.15
2023-04-18T06:32:35.875Z,14.55
2023-04-18T06:35:02.991Z,14.68
2023-04-18T06:37:30.139Z,13.93
2023-04-18T06:39:57.308Z,13.77
2023-04-18T06:42:24.535Z,14.25
2023-04-18T06:44:51.655Z,14.25
2023-04-18T06:47:18.872Z,14.77
2023-04-18T06:49:45.975Z,14.75
2023-04-18T06:52:13.273Z,15.35
2023-04-18T06:54:40.433Z,13.95
2023-04-18T06:57:07.536Z,14.30
2023-04-18T06:59:35.775Z,13.43
2023-04-18T07:02:02.843Z,13.68
2023-04-18T07:04:30.011Z,13.52
2023-04-18T07:06:57.232Z,13.95
2023-04-18T07:09:24.343Z,14.80
2023-04-18T07:11:52.853Z,14.95
2023-04-18T07:14:24.588Z,13.93
2023-04-18T07:16:52.371Z,15.27
2023-04-18T07:19:19.504Z,13.98
2023-04-18T07:21:46.700Z,13.85
2023-04-18T07:24:14.109Z,13.93
2023-04-18T07:26:41.697Z,15.18
2023-04-18T07:29:08.851Z,14.45
2023-04-18T07:31:36.250Z,14.32
2023-04-18T07:34:03.477Z,13.73
2023-04-18T07:36:31.605Z,14.65
2023-04-18T07:38:58.698Z,13.20
2023-04-18T07:41:25.742Z,14.65
2023-04-18T07:43:52.836Z,13.77
2023-04-18T07:46:20.053Z,13.57
2023-04-18T07:48:47.130Z,13.25
2023-04-18T07:51:14.321Z,14.20
2023-04-18T07:53:41.463Z,13.52
2023-04-18T07:56:08.749Z,14.20
2023-04-18T07:58:36.376Z,13.05
2023-04-18T08:01:03.542Z,13.85
2023-04-18T08:03:30.765Z,13.43
2023-04-18T08:05:58.092Z,13.48
2023-04-18T08:08:25.032Z,13.60
2023-04-18T08:10:52.194Z,13.70
2023-04-18T08:13:19.334Z,14.20
2023-04-18T08:15:47.141Z,14.35
2023-04-18T08:18:14.251Z,13.52
2023-04-18T08:20:41.556Z,14.32
2023-04-18T08:23:11.319Z,13.18
2023-04-18T08:25:39.883Z,13.93
2023-04-18T08:28:07.136Z,14.13
2023-04-18T08:30:34.323Z,13.63
2023-04-18T08:33:02.016Z,13.25
2023-04-18T08:35:29.066Z,13.20
2023-04-18T08:37:56.016Z,12.30
2023-04-18T08:40:23.193Z,13.20
2023-04-18T08:42:53.012Z,13.60
2023-04-18T08:45:21.074Z,12.27
2023-04-18T08:47:48.189Z,12.65
2023-04-18T08:50:15.324Z,12.30
2023-04-18T08:52:48.262Z,11.43
2023-04-18T08:55:16.330Z,12.25
2023-04-18T08:57:44.292Z,12.20
2023-04-18T09:00:11.984Z,11.65
2023-04-18T09:02:45.208Z,11.40
2023-04-18T09:05:22.854Z,12.48
2023-04-18T09:07:51.878Z,12.07
2023-04-18T09:10:36.755Z,11.88
2023-04-18T09:13:04.469Z,12.50
2023-04-18T09:15:31.716Z,11.70
2023-04-18T09:18:02.560Z,12.88
2023-04-18T09:20:41.493Z,12.10
2023-04-18T09:23:14.903Z,11.88
2023-04-18T09:25:44.477Z,12.05
2023-04-18T09:28:25.138Z,11.43
2023-04-18T09:30:52.872Z,11.63
2023-04-18T09:33:33.753Z,12.05
2023-04-18T09:36:23.509Z,11.90
2023-04-18T09:38:56.045Z,11.65
2023-04-18T09:41:23.841Z,11.52
2023-04-18T09:44:07.833Z,11.25
2023-04-18T09:46:34.875Z,10.27
2023-04-18T09:49:02.355Z,12.70
2023-04-18T09:51:33.896Z,11.35
2023-04-18T09:54:01.873Z,11.90
2023-04-18T09:56:32.070Z,11.55
2023-04-18T09:59:41.762Z,10.82
2023-04-18T10:02:21.145Z,11.13
2023-04-18T10:04:53.765Z,12.27
2023-04-18T10:07:21.179Z,12.32
2023-04-18T10:09:49.530Z,11.48
2023-04-18T10:12:18.661Z,11.73
2023-04-18T10:14:46.005Z,12.45
2023-04-18T10:17:14.994Z,11.65
2023-04-18T10:19:44.421Z,11.45
2023-04-18T10:22:12.475Z,11.85
2023-04-18T10:24:50.320Z,11.80
2023-04-18T10:27:18.439Z,11.88
2023-04-18T10:29:54.859Z,12.55
2023-04-18T10:32:24.747Z,11.65
2023-04-18T10:34:53.648Z,11.73
2023-04-18T10:37:20.694Z,11.07
2023-04-18T10:39:58.693Z,11.57
2023-04-18T10:42:47.401Z,11.60
2023-04-18T10:45:24.951Z,11.40
2023-04-18T10:48:30.399Z,11.43
2023-04-18T10:51:18.011Z,11.57
2023-04-18T10:53:57.786Z,11.38
2023-04-18T10:56:26.250Z,10.65
2023-04-18T10:58:54.009Z,11.15
2023-04-18T11:01:32.146Z,10.75
2023-04-18T11:04:00.509Z,10.73
2023-04-18T11:06:28.043Z,11.60
2023-04-18T11:09:14.759Z,11.25
2023-04-18T11:11:42.606Z,11.30
2023-04-18T11:14:10.207Z,10.98
2023-04-18T11:16:37.350Z,10.90
2023-04-18T11:19:25.989Z,11.23
2023-04-18T11:21:53.163Z,11.00
2023-04-18T11:24:24.542Z,10.43
2023-04-18T11:26:56.184Z,11.02
2023-04-18T11:29:23.491Z,11.05
2023-04-18T11:31:56.883Z,11.52
2023-04-18T11:34:30.925Z,11.18
2023-04-18T11:36:58.859Z,11.45
2023-04-18T11:39:26.059Z,10.88
2023-04-18T11:41:53.458Z,10.65
2023-04-18T11:44:24.978Z,10.45
2023-04-18T11:46:55.369Z,9.75
2023-04-18T11:49:30.557Z,9.50
2023-04-18T11:51:58.143Z,9.70
2023-04-18T11:54:42.661Z,9.95
2023-04-18T11:57:20.653Z,10.73
2023-04-18T11:59:52.611Z,9.85
2023-04-18T12:02:21.334Z,9.90
2023-04-18T12:04:52.204Z,10.02
2023-04-18T12:07:41.005Z,9.60
2023-04-18T12:10:20.244Z,9.68
2023-04-18T12:12:52.160Z,10.05
2023-04-18T12:15:19.639Z,8.77
2023-04-18T12:17:53.820Z,10.40
2023-04-18T12:20:24.893Z,9.57
2023-04-18T12:22:53.222Z,9.57
2023-04-18T12:25:27.287Z,9.18
2023-04-18T12:27:59.086Z,9.35
2023-04-18T12:30:31.962Z,8.77
2023-04-18T12:33:01.434Z,8.90
2023-04-18T12:35:30.269Z,8.57
2023-04-18T12:37:59.388Z,7.63
2023-04-18T12:40:27.148Z,8.00
2023-04-18T12:42:54.912Z,8.40
2023-04-18T12:45:23.567Z,8.20
2023-04-18T12:47:52.244Z,9.27
2023-04-18T12:50:24.458Z,8.40
2023-04-18T12:52:56.071Z,8.93
2023-04-18T12:55:23.222Z,8.70
2023-04-18T12:57:54.475Z,8.40
2023-04-18T13:00:23.720Z,8.48
2023-04-18T13:02:52.608Z,8.30
2023-04-18T13:05:21.751Z,8.10
2023-04-18T13:07:49.915Z,8.23
2023-04-18T13:10:19.778Z,8.43
2023-04-18T13:12:47.370Z,8.00
2023-04-18T13:15:15.945Z,7.65
2023-04-18T13:17:43.860Z,7.65
2023-04-18T13:20:13.014Z,8.30
2023-04-18T13:22:41.355Z,7.93
2023-04-18T13:25:10.814Z,7.60
2023-04-18T13:27:41.445Z,9.10
2023-04-18T13:30:11.124Z,8.27
2023-04-18T13:32:39.369Z,8.40
2023-04-18T13:35:09.278Z,9.15
2023-04-18T13:37:36.858Z,8.93
2023-04-18T13:40:06.624Z,10.00
2023-04-18T13:42:34.632Z,10.40
2023-04-18T13:45:01.766Z,9.10
2023-04-18T13:47:30.079Z,9.52
2023-04-18T13:49:58.009Z,8.55
2023-04-18T13:52:26.155Z,8.38
2023-04-18T13:54:53.343Z,7.93
2023-04-18T13:57:20.464Z,8.65
2023-04-18T13:59:47.543Z,8.68
2023-04-18T14:02:14.995Z,9.50
2023-04-18T14:04:42.311Z,8.95
2023-04-18T14:07:09.727Z,9.18
2023-04-18T14:09:36.739Z,9.77
2023-04-18T14:12:03.963Z,9.10
2023-04-18T14:14:31.013Z,8.93
2023-04-18T14:16:58.137Z,8.35
2023-04-18T14:19:26.821Z,9.43
2023-04-18T14:21:53.780Z,9.10
2023-04-18T14:24:20.875Z,8.65
2023-04-18T14:26:48.196Z,8.93
2023-04-18T14:29:15.576Z,9.38
2023-04-18T14:31:42.909Z,9.05
2023-04-18T14:34:10.032Z,9.43
2023-04-18T14:36:37.132Z,8.93
2023-04-18T14:39:04.840Z,9.55
2023-04-18T14:41:32.008Z,9.10
2023-04-18T14:43:59.556Z,9.60
2023-04-18T14:46:28.399Z,9.35
2023-04-18T14:48:55.504Z,9.60
2023-04-18T14:51:23.322Z,9.15
2023-04-18T14:53:50.508Z,9.63
2023-04-18T14:56:21.153Z,9.30
2023-04-18T14:58:48.687Z,8.75
2023-04-18T15:01:17.629Z,9.70
2023-04-18T15:03:45.512Z,9.20
2023-04-18T15:06:12.801Z,10.25
2023-04-18T15:08:39.848Z,9.38
2023-04-18T15:11:08.274Z,8.00
2023-04-18T15:13:35.716Z,8.82
2023-04-18T15:16:03.183Z,8.93
2023-04-18T15:18:30.324Z,8.70
2023-04-18T15:21:00.201Z,8.23
2023-04-18T15:23:28.459Z,8.23
2023-04-18T15:25:55.455Z,8.48
2023-04-18T15:28:23.096Z,8.13
2023-04-18T15:30:50.104Z,8.45
2023-04-18T15:33:19.170Z,8.27
2023-04-18T15:35:47.738Z,8.73
2023-04-18T15:38:14.853Z,8.77
2023-04-18T15:40:43.622Z,9.57
2023-04-18T15:43:10.727Z,9.07
2023-04-18T15:45:37.734Z,9.15
2023-04-18T15:48:04.950Z,10.30
2023-04-18T15:50:33.589Z,9.05
2023-04-18T15:53:00.893Z,9.88
2023-04-18T15:55:27.986Z,9.98
2023-04-18T15:57:55.212Z,10.15
2023-04-18T16:00:23.399Z,9.63
2023-04-18T16:02:50.880Z,9.88
2023-04-18T16:05:18.457Z,9.30
2023-04-18T16:07:45.513Z,9.85
2023-04-18T16:10:12.993Z,10.75
2023-04-18T16:12:40.429Z,9.13
2023-04-18T16:15:09.610Z,9.57
2023-04-18T16:17:38.050Z,10.48
2023-04-18T16:20:09.289Z,10.48
2023-04-18T16:22:37.143Z,9.95
2023-04-18T16:25:04.988Z,10.48
2023-04-18T16:27:33.194Z,10.50
2023-04-18T16:30:00.432Z,11.05
2023-04-18T16:32:27.493Z,11.25
2023-04-18T16:34:54.551Z,11.13
2023-04-18T16:37:21.576Z,10.77
2023-04-18T16:39:48.642Z,10.02
2023-04-18T16:42:16.093Z,13.90
2023-04-18T16:44:44.869Z,14.27
2023-04-18T16:47:11.942Z,10.23
2023-04-18T16:49:39.068Z,10.32
2023-04-18T16:52:06.089Z,10.60
2023-04-18T16:54:33.096Z,11.15
2023-04-18T16:57:00.106Z,9.63
2023-04-18T16:59:27.327Z,10.52
2023-04-18T17:01:54.363Z,10.98
2023-04-18T17:04:22.113Z,10.90
2023-04-18T17:06:51.878Z,15.05
2023-04-18T17:09:19.967Z,9.95
2023-04-18T17:11:47.187Z,10.75
2023-04-18T17:14:14.724Z,10.25
2023-04-18T17:16:42.803Z,10.13
2023-04-18T17:19:10.561Z,10.10
2023-04-18T17:21:38.026Z,10.05
2023-04-18T17:24:07.121Z,10.20
2023-04-18T17:26:35.564Z,11.30
2023-04-18T17:29:04.396Z,10.98
2023-04-18T17:31:32.390Z,11.23
2023-04-18T17:33:59.918Z,10.90
2023-04-18T17:36:27.349Z,10.95
2023-04-18T17:38:54.519Z,10.90
2023-04-18T17:41:22.094Z,10.93
2023-04-18T17:43:53.634Z,10.65
2023-04-18T17:46:20.721Z,11.00
2023-04-18T17:48:47.770Z,11.15
2023-04-18T17:51:16.600Z,11.07
2023-04-18T17:53:43.792Z,10.57
2023-04-18T17:56:11.021Z,11.43
2023-04-18T17:58:37.998Z,10.85
2023-04-18T18:01:14.747Z,10.70
2023-04-18T18:03:43.940Z,11.20
2023-04-18T18:06:14.889Z,10.55
2023-04-18T18:08:43.403Z,10.60
2023-04-18T18:11:10.853Z,11.93
2023-04-18T18:13:41.410Z,11.95
2023-04-18T18:18:36.996Z,10.98
2023-04-18T18:21:04.092Z,11.27
2023-04-18T18:23:31.243Z,11.18
2023-04-18T18:25:58.761Z,10.38
2023-04-18T18:28:25.821Z,9.63
2023-04-18T18:30:53.818Z,11.10
2023-04-18T18:33:20.891Z,11.73
2023-04-18T18:35:48.168Z,10.77
2023-04-18T18:38:15.265Z,11.02
2023-04-18T18:40:42.253Z,11.13
2023-04-18T18:43:09.264Z,9.85
2023-04-18T18:45:36.264Z,10.13
2023-04-18T18:48:04.193Z,9.88
2023-04-18T18:50:31.241Z,10.55
2023-04-18T18:52:58.338Z,9.80
2023-04-18T18:55:25.362Z,10.15
2023-04-18T18:57:52.291Z,9.60
2023-04-18T19:00:19.598Z,9.52
2023-04-18T19:02:46.824Z,9.20
2023-04-18T19:05:14.210Z,9.48
2023-04-18T19:07:42.549Z,9.43
2023-04-18T19:10:10.847Z,9.32
2023-04-18T19:12:38.561Z,9.27
2023-04-18T19:15:06.534Z,9.68
2023-04-18T19:17:33.636Z,10.43
2023-04-18T19:20:01.715Z,10.77
2023-04-18T19:22:29.631Z,9.68
2023-04-18T19:24:57.418Z,9.90
2023-04-18T19:27:24.482Z,10.63
2023-04-18T19:29:51.540Z,10.02
2023-04-18T19:32:18.577Z,15.57
2023-04-18T19:34:45.779Z,9.10
2023-04-18T19:37:12.921Z,11.35
2023-04-18T19:39:39.882Z,11.23
2023-04-18T19:42:07.614Z,14.50
2023-04-18T19:44:35.001Z,8.68
2023-04-18T19:47:02.077Z,12.38
2023-04-18T19:49:29.080Z,9.55
2023-04-18T19:51:56.124Z,9.52
2023-04-18T19:54:23.171Z,8.85
2023-04-18T19:56:50.516Z,7.68
2023-04-18T19:59:17.568Z,8.07
2023-04-18T20:01:44.721Z,7.03
2023-04-18T20:04:12.040Z,7.10
2023-04-18T20:06:39.218Z,7.50
2023-04-18T20:09:06.481Z,6.82
2023-04-18T20:11:33.763Z,6.85
2023-04-18T20:14:01.180Z,6.63
2023-04-18T20:16:28.249Z,6.80
2023-04-18T20:18:55.273Z,6.35
2023-04-18T20:21:22.341Z,6.15
2023-04-18T20:23:49.340Z,7.03
2023-04-18T20:26:16.339Z,6.28
2023-04-18T20:28:43.297Z,6.80
2023-04-18T20:31:12.030Z,6.68
2023-04-18T20:33:39.017Z,7.28
2023-04-18T20:36:06.757Z,6.78
2023-04-18T20:38:34.086Z,5.60
2023-04-18T20:41:01.177Z,4.82
2023-04-18T20:43:28.844Z,5.38
2023-04-18T20:45:57.963Z,5.03
2023-04-18T20:48:25.107Z,6.05
2023-04-18T20:50:52.229Z,6.38
2023-04-18T20:53:21.199Z,6.90
2023-04-18T20:55:49.005Z,5.47
2023-04-18T20:58:16.297Z,5.38
2023-04-18T21:00:44.754Z,4.50
2023-04-18T21:03:15.729Z,4.50
2023-04-18T21:05:43.902Z,4.07
2023-04-18T21:08:13.585Z,3.88
2023-04-18T21:10:40.640Z,3.90
2023-04-18T21:13:09.376Z,4.25
2023-04-18T21:15:36.485Z,4.13
2023-04-18T21:18:03.674Z,3.72
2023-04-18T21:20:30.868Z,3.10
2023-04-18T21:22:57.905Z,3.40
2023-04-18T21:25:24.935Z,3.30
2023-04-18T21:27:52.018Z,2.80
2023-04-18T21:30:19.162Z,3.10
2023-04-18T21:32:47.458Z,3.50
2023-04-18T21:35:15.633Z,3.45
2023-04-18T21:37:43.498Z,3.08
2023-04-18T21:40:10.931Z,3.40
2023-04-18T21:42:38.072Z,3.78
2023-04-18T21:45:06.448Z,3.22
2023-04-18T21:47:33.500Z,3.00
2023-04-18T21:50:00.465Z,3.13
2023-04-18T21:52:27.417Z,2.72
2023-04-18T21:54:54.468Z,3.20
2023-04-18T21:57:21.423Z,2.97
2023-04-18T21:59:48.407Z,2.78
2023-04-18T22:02:15.662Z,2.70
2023-04-18T22:04:42.949Z,2.47
2023-04-18T22:07:11.515Z,2.90
2023-04-18T22:09:38.744Z,2.85
2023-04-18T22:12:05.893Z,3.10
2023-04-18T22:14:32.908Z,3.20
2023-04-18T22:17:03.430Z,3.13
2023-04-18T22:19:31.524Z,2.70
2023-04-18T22:21:58.935Z,2.90
2023-04-18T22:24:26.244Z,2.65
2023-04-18T22:26:53.624Z,2.50
2023-04-18T22:29:20.596Z,2.63
2023-04-18T22:31:47.673Z,2.80
2023-04-18T22:34:14.912Z,2.50
2023-04-18T22:36:43.956Z,2.70
2023-04-18T22:39:12.282Z,2.92
2023-04-18T22:41:39.271Z,2.40
2023-04-18T22:44:06.298Z,2.92
2023-04-18T22:46:33.472Z,2.90
2023-04-18T22:49:00.759Z,2.30
2023-04-18T22:51:28.853Z,2.45
2023-04-18T22:53:56.488Z,2.78
2023-04-18T22:56:23.626Z,2.35
2023-04-18T22:58:50.733Z,2.10
2023-04-18T23:01:18.095Z,2.17
2023-04-18T23:03:45.244Z,2.20
2023-04-18T23:06:12.447Z,2.75
2023-04-18T23:08:39.487Z,2.13
2023-04-18T23:11:06.506Z,2.30
2023-04-18T23:13:33.477Z,2.55
2023-04-18T23:16:00.536Z,2.60
2023-04-18T23:18:30.213Z,2.42
2023-04-18T23:20:57.239Z,2.47
2023-04-18T23:23:24.235Z,2.72
2023-04-18T23:25:51.224Z,2.40
2023-04-18T23:28:18.733Z,2.38
2023-04-18T23:30:46.432Z,3.00
2023-04-18T23:33:14.033Z,2.55
2023-04-18T23:35:41.215Z,3.00
2023-04-18T23:38:08.858Z,3.05
2023-04-18T23:40:36.227Z,2.95
2023-04-18T23:43:03.530Z,3.15
2023-04-18T23:45:31.259Z,2.90
2023-04-18T23:47:58.475Z,3.13
2023-04-18T23:50:25.945Z,2.88
2023-04-18T23:52:53.146Z,3.00
2023-04-18T23:55:20.515Z,3.00
2023-04-18T23:57:47.764Z,3.53
